Shagang Hongfa — 9V9138 — position and weather

sailwx.info

Track history (hours):
 
Tides and Currents Weather Stations Pressure Air Temp Water Temp Dewpoint Dewpoint Depression Visibility Wind Speed Wind Dir Waves Ship Positions

Shagang Hongfa

Last reported at 2015-Aug-24 07:08 UTC. Time now 2015-Aug-30 14:00 UTC.
Position N 24°40' E 120°24'.

Length 292 m; draft 8.5 m.

Type: Cargo ship. MMSI: 566178000.

Date/timePositionNaut miles runAvg speedWind from/ knotsBaromVisibWave heightAir tempDewpointWater temp
2015-Aug-24 07:08N 24°40' E 120°24'  
2015-Aug-21 06:29N 37°27' E 123°14'1313.8
2015-Aug-21 05:33N 37°34' E 123°00'1313.3
2015-Aug-21 04:32N 37°40' E 122°45'1312.9
2015-Aug-21 03:33N 37°47' E 122°32'1312.9
2015-Aug-21 02:32N 37°54' E 122°18'4313.7
2015-Aug-20 23:23N 38°16' E 121°30'  
2015-Aug-16 16:25N 38°40' E 118°26'2111.3
2015-Aug-16 14:33N 38°40' E 118°53'1110.9
2015-Aug-16 13:31N 38°40' E 119°08'1010.7
2015-Aug-16 12:33N 38°40' E 119°21'1110.6
2015-Aug-16 11:33N 38°39' E 119°34'1110.9
2015-Aug-16 10:33N 38°39' E 119°48'1111.4
2015-Aug-16 09:33N 38°39' E 120°03'1211.7
2015-Aug-16 08:33N 38°38' E 120°18'1211.8
2015-Aug-16 07:33N 38°38' E 120°33'1212.2
2015-Aug-16 06:33N 38°38' E 120°49'2613.0
2015-Aug-16 04:33N 38°26' E 121°18'1212.3
2015-Aug-16 03:33N 38°20' E 121°32'1212.1
2015-Aug-16 02:32N 38°14' E 121°46'1211.9
2015-Aug-16 01:33N 38°09' E 121°58'1111.4
2015-Aug-16 00:33N 38°02' E 122°10'1211.8
2015-Aug-15 23:33N 37°56' E 122°23'1212.0
2015-Aug-15 22:33N 37°50' E 122°36'1212.1
2015-Aug-15 21:33N 37°43' E 122°49'1212.2
2015-Aug-15 20:33N 37°36' E 123°02'1111.3
2015-Aug-15 19:32N 37°25' E 123°02'1210.8
2015-Aug-15 18:27N 37°13' E 123°02'1010.0
2015-Aug-15 17:28N 37°04' E 123°04'  
Track history (hours):
 
Tides and Currents Weather Stations Pressure Air Temp Water Temp Dewpoint Dewpoint Depression Visibility Wind Speed Wind Dir Waves Ship Positions

Shagang Hongfa

Last reported at 2015-Aug-24 07:08 UTC. Time now 2015-Aug-30 14:00 UTC.
Position N 24°40' E 120°24'.

Length 292 m; draft 8.5 m.

Type: Cargo ship. MMSI: 566178000.

Date/timePositionNaut miles runAvg speedWind from/ knotsBaromVisibWave heightAir tempDewpointWater temp
2015-Aug-24 07:08N 24°40' E 120°24'  
2015-Aug-21 06:29N 37°27' E 123°14'1313.8
2015-Aug-21 05:33N 37°34' E 123°00'1313.3
2015-Aug-21 04:32N 37°40' E 122°45'1312.9
2015-Aug-21 03:33N 37°47' E 122°32'1312.9
2015-Aug-21 02:32N 37°54' E 122°18'4313.7
2015-Aug-20 23:23N 38°16' E 121°30'  
2015-Aug-16 16:25N 38°40' E 118°26'2111.3
2015-Aug-16 14:33N 38°40' E 118°53'1110.9
2015-Aug-16 13:31N 38°40' E 119°08'1010.7
2015-Aug-16 12:33N 38°40' E 119°21'1110.6
2015-Aug-16 11:33N 38°39' E 119°34'1110.9
2015-Aug-16 10:33N 38°39' E 119°48'1111.4
2015-Aug-16 09:33N 38°39' E 120°03'1211.7
2015-Aug-16 08:33N 38°38' E 120°18'1211.8
2015-Aug-16 07:33N 38°38' E 120°33'1212.2
2015-Aug-16 06:33N 38°38' E 120°49'2613.0
2015-Aug-16 04:33N 38°26' E 121°18'1212.3
2015-Aug-16 03:33N 38°20' E 121°32'1212.1
2015-Aug-16 02:32N 38°14' E 121°46'1211.9
2015-Aug-16 01:33N 38°09' E 121°58'1111.4
2015-Aug-16 00:33N 38°02' E 122°10'1211.8
2015-Aug-15 23:33N 37°56' E 122°23'1212.0
2015-Aug-15 22:33N 37°50' E 122°36'1212.1
2015-Aug-15 21:33N 37°43' E 122°49'1212.2
2015-Aug-15 20:33N 37°36' E 123°02'1111.3
2015-Aug-15 19:32N 37°25' E 123°02'1210.8
2015-Aug-15 18:27N 37°13' E 123°02'1010.0
2015-Aug-15 17:28N 37°04' E 123°04'  

Dump ship's entire track history